Etusivu
METAR-TAF:

METAR-TAF

Lentoasemat :

Whitecourt, Alberta, Kanada

Leveyspiiri: 54-09N, Pituuspiiri: 115-47W, korkeus merenpinnasta: 783 m

Tämänhetkinen sää

Tämä raportti tehtiin 3 tuntia ja 48 minuuttia sitten, kello 04.00 UTC
Tuuli 11 kn lännestä/luoteesta puuskistuen 19 kn:hen
Lämpötila 3°C
Kosteus 25%
Ilmanpaine 1021 hPa
Näkyvyys: 24.1 km
Muutamia pilviä 10000 ft:n korkeudessa

METAR: CYZU 250400Z 30011G19KT 15SM FEW100 03/M15 A3015 RMK AC2 LAST STFD OBS/NXT 251200Z SLP239

Aika: 01:48 (07:48 UTC)

Sääennuste

Tämä raportti tehtiin 10 tuntia ja 11 minuuttia sitten, kello 21.37 UTC
Ennuste voimassa 24. päivästä klo 21 UTC - 24. päivään klo 23 UTC
Tuuli 20 kn lännestä/luoteesta puuskistuen 30 kn:hen
Näkyvyys: 10 km
Hajonneita pilviä 7000 ft:n korkeudessa
sadekuuroja näköpiirissä

TAF: CYZU 242137Z 2421/2423 29020G30KT P6SM VCSH BKN070 RMK NXT FCST WILL BE ISSUED AT 251415Z

Säähavainnot ja -ennusteet yli 4000 lentoasemalta (METAR- ja TAF-raportit).

Käytössä olevat sääasemat on merkitty karttaan keltaisilla ja punaisilla pisteillä.

Aseta hiiri pisteen päälle nähdäksesi sääaseman nimen.

Klikkaa sitten nähdäksesi säähavainnot ja -ennusteet.

Kartan vaihtaminen: klikkaa mustalla rastilla varustettuja vihreitä pisteitä, niin voit zoomata sisään; viivalla varustettua vihreää pistettä, niin voit zoomata ulos tai vihreitä nuolia, niin pääset viereisille kartoille.


METAR-TAF: